| time (UTC) | temp C | wind direction | speed KPH | gust KPH | rain 1hr cm | rain 24hr cm | rain mn cm | humidity % | barometer mb |
| 20260906210001 | 20 | 328 | 3.2 | 6.4 | 0.00 | 0.00 | 0.00 | 70 | 1020.7 |
| 20260906204457 | 20 | 106 | 4.8 | 12.9 | 0.00 | 0.00 | 0.00 | 70 | 1020.6 |
| 20260906201458 | 20 | 155 | 3.2 | 8.0 | 0.00 | 0.00 | 0.00 | 71 | 1020.6 |
| 20260906195959 | 20 | 360 | 4.8 | 16.1 | 0.00 | 0.00 | 0.00 | 72 | 1020.5 |
| 20260906194456 | 20 | 74 | 4.8 | 14.5 | 0.00 | 0.00 | 0.00 | 71 | 1020.7 |
| 20260906192956 | 20 | 138 | 4.8 | 12.9 | 0.00 | 0.00 | 0.00 | 71 | 1020.7 |
| 20260906191456 | 20 | 54 | 4.8 | 12.9 | 0.00 | 0.00 | 0.00 | 74 | 1020.5 |
| 20260906190001 | 20 | 340 | 4.8 | 14.5 | 0.00 | 0.00 | 0.00 | 75 | 1020.6 |
| 20260906184456 | 20 | 94 | 4.8 | 17.7 | 0.00 | 0.00 | 0.00 | 74 | 1020.5 |
| 20260906182957 | 20 | 42 | 6.4 | 16.1 | 0.00 | 0.00 | 0.00 | 74 | 1020.5 |
| 20260906175959 | 21 | 119 | 3.2 | 12.9 | 0.00 | 0.00 | 0.00 | 73 | 1020.6 |
| 20260906174456 | 21 | 22 | 4.8 | 14.5 | 0.00 | 0.00 | 0.00 | 74 | 1020.5 |
| 20260906172957 | 20 | 91 | 6.4 | 17.7 | 0.00 | 0.00 | 0.00 | 75 | 1020.5 |
| 20260906171456 | 20 | 320 | 3.2 | 14.5 | 0.00 | 0.00 | 0.00 | 77 | 1020.6 |
| 20260906170000 | 20 | 5 | 3.2 | 12.9 | 0.00 | 0.00 | 0.00 | 78 | 1020.7 |
| 20260906164456 | 20 | 339 | 3.2 | 9.7 | 0.00 | 0.00 | 0.00 | 79 | 1020.6 |
| 20260906163313 | 20 | 90 | 4.8 | 16.1 | 0.00 | 0.00 | 0.00 | 75 | 1020.5 |
| 20260906161455 | 20 | 328 | 4.8 | 12.9 | 0.00 | 0.00 | 0.00 | 78 | 1020.6 |
| 20260906160026 | 20 | 103 | 4.8 | 8.0 | 0.00 | 0.00 | 0.00 | 77 | 1020.6 |
| 20260906154611 | 20 | 355 | 3.2 | 8.0 | 0.00 | 0.00 | 0.00 | 77 | 1020.6 |
| 20260906152956 | 20 | 329 | 3.2 | 9.7 | 0.00 | 0.00 | 0.00 | 81 | 1020.5 |
| 20260906151456 | 20 | 33 | 8.0 | 17.7 | 0.00 | 0.00 | 0.00 | 80 | 1020.3 |
| 20260906150000 | 20 | 212 | 3.2 | 12.9 | 0.00 | 0.00 | 0.00 | 79 | 1020.4 |
| 20260906132956 | 18 | 289 | 4.8 | 17.7 | 0.00 | 0.00 | 0.00 | 91 | 1019.8 |
| 20260906131457 | 18 | 96 | 3.2 | 14.5 | 0.00 | 0.00 | 0.00 | 95 | 1019.7 |
| 20260906125959 | 18 | 69 | 3.2 | 11.3 | 0.00 | 0.00 | 0.00 | 98 | 1019.5 |
| 20260906124456 | 18 | 63 | 1.6 | 4.8 | 0.00 | 0.00 | 0.00 | 98 | 1019.6 |
| 20260906122956 | 17 | 297 | 0.0 | 3.2 | 0.00 | 0.00 | 0.00 | 99 | 1019.3 |
| 20260906121456 | 17 | 297 | 0.0 | 4.8 | 0.00 | 0.00 | 0.00 | 99 | 1019.4 |
| 20260906115958 | 16 | 178 | 0.0 | 0.0 | 0.00 | 0.00 | 0.00 | 99 | 1019.3 |
| 20260906114456 | 15 | 178 | 0.0 | 0.0 | 0.00 | 0.00 | 0.00 | 99 | 1019.0 |
| 20260906112956 | 14 | 178 | 0.0 | 0.0 | 0.00 | 0.00 | 0.00 | 99 | 1018.9 |
| 20260906111456 | 13 | 178 | 0.0 | 0.0 | 0.00 | 0.00 | 0.00 | 98 | 1018.9 |
| 20260906105959 | 13 | 178 | 0.0 | 0.0 | 0.00 | 0.00 | 0.00 | 99 | 1018.7 |
| 20260906104456 | 13 | 178 | 0.0 | 0.0 | 0.00 | 0.00 | 0.00 | 98 | 1018.5 |
| 20260906101455 | 13 | 178 | 0.0 | 0.0 | 0.00 | 0.00 | 0.00 | 98 | 1018.2 |
| 20260906095959 | 13 | 178 | 0.0 | 0.0 | 0.00 | 0.00 | 0.00 | 98 | 1018.1 |
| 20260906094456 | 14 | 178 | 0.0 | 0.0 | 0.00 | 0.00 | 0.00 | 98 | 1018.0 |
| 20260906092955 | 14 | 178 | 0.0 | 0.0 | 0.00 | 0.00 | 0.00 | 98 | 1017.7 |
| 20260906091456 | 14 | 178 | 0.0 | 0.0 | 0.00 | 0.00 | 0.00 | 98 | 1017.8 |
| 20260906085958 | 14 | 178 | 0.0 | 0.0 | 0.00 | 0.00 | 0.00 | 98 | 1017.5 |
| 20260906084455 | 14 | 178 | 0.0 | 0.0 | 0.00 | 0.00 | 0.00 | 98 | 1017.2 |
| 20260906082956 | 14 | 178 | 0.0 | 0.0 | 0.00 | 0.00 | 0.00 | 98 | 1017.0 |
| 20260906081455 | 15 | 178 | 0.0 | 0.0 | 0.00 | 0.00 | 0.00 | 98 | 1017.0 |
| 20260906075959 | 15 | 178 | 0.0 | 0.0 | 0.00 | 0.00 | 0.00 | 98 | 1017.0 |
| 20260906074455 | 15 | 178 | 0.0 | 0.0 | 0.00 | 0.00 | 0.00 | 97 | 1017.1 |
| 20260906072955 | 15 | 178 | 0.0 | 0.0 | 0.00 | 0.00 | 0.00 | 98 | 1017.0 |
| 20260906065958 | 15 | 178 | 0.0 | 0.0 | 0.00 | 0.00 | 0.00 | 97 | 1017.0 |
| 20260906064455 | 15 | 178 | 0.0 | 0.0 | 0.00 | 0.00 | 0.00 | 98 | 1016.9 |
| 20260906062954 | 16 | 178 | 0.0 | 0.0 | 0.00 | 0.00 | 0.00 | 98 | 1017.1 |
| 20260906061455 | 16 | 178 | 0.0 | 0.0 | 0.00 | 0.00 | 0.00 | 97 | 1017.0 |
| 20260906055957 | 16 | 178 | 0.0 | 0.0 | 0.00 | 0.00 | 0.00 | 98 | 1017.0 |
| 20260906054455 | 16 | 178 | 0.0 | 0.0 | 0.00 | 0.00 | 0.00 | 98 | 1017.1 |
| 20260906052955 | 15 | 178 | 0.0 | 0.0 | 0.00 | 0.00 | 0.00 | 97 | 1017.2 |
| 20260906051454 | 16 | 178 | 0.0 | 0.0 | 0.00 | 0.00 | 0.00 | 97 | 1017.0 |
| 20260906045958 | 16 | 178 | 0.0 | 0.0 | 0.00 | 0.00 | 0.00 | 97 | 1017.2 |
| 20260906044455 | 15 | 178 | 0.0 | 0.0 | 0.00 | 0.00 | 0.00 | 97 | 1017.1 |
| 20260906042956 | 15 | 178 | 0.0 | 0.0 | 0.00 | 0.00 | 0.00 | 97 | 1016.9 |
| 20260906041455 | 15 | 178 | 0.0 | 1.6 | 0.00 | 0.00 | 0.00 | 97 | 1016.9 |
| 20260906040003 | 15 | 178 | 0.0 | 0.0 | 0.00 | 0.00 | 0.00 | 96 | 1016.7 |
| 20260906034458 | 15 | 178 | 0.0 | 0.0 | 0.00 | 0.00 | 0.00 | 96 | 1016.9 |
| 20260906032958 | 16 | 178 | 0.0 | 0.0 | 0.00 | 0.00 | 0.00 | 96 | 1016.8 |
| 20260906031458 | 16 | 178 | 0.0 | 0.0 | 0.00 | 0.00 | 0.00 | 95 | 1016.8 |
| 20260906030001 | 16 | 178 | 0.0 | 0.0 | 0.00 | 0.00 | 0.00 | 95 | 1016.7 |
| 20260906024458 | 16 | 178 | 0.0 | 0.0 | 0.00 | 0.00 | 0.00 | 94 | 1016.7 |
| 20260906022958 | 17 | 178 | 0.0 | 0.0 | 0.00 | 0.00 | 0.00 | 94 | 1016.7 |
| 20260906020000 | 17 | 178 | 0.0 | 0.0 | 0.00 | 0.00 | 0.00 | 93 | 1016.5 |
| 20260906014457 | 17 | 178 | 0.0 | 0.0 | 0.00 | 0.00 | 0.00 | 93 | 1016.4 |
| 20260906012959 | 18 | 178 | 0.0 | 0.0 | 0.00 | 0.00 | 0.00 | 93 | 1016.3 |
| 20260906010000 | 18 | 178 | 0.0 | 0.0 | 0.00 | 0.00 | 0.00 | 92 | 1016.2 |
| 20260906004458 | 18 | 178 | 0.0 | 0.0 | 0.00 | 0.00 | 0.00 | 91 | 1016.3 |
| 20260906002957 | 18 | 178 | 0.0 | 0.0 | 0.00 | 0.00 | 0.00 | 91 | 1016.1 |
| 20260906001457 | 18 | 178 | 0.0 | 0.0 | 0.00 | 0.00 | 0.00 | 89 | 1015.9 |
| 20260906000001 | 18 | 178 | 0.0 | 1.6 | 0.00 | 0.00 | 0.00 | 87 | 1016.0 |
| 20260905234458 | 20 | 178 | 0.0 | 0.0 | 0.00 | 0.00 | 0.00 | 85 | 1016.2 |
| 20260905231457 | 21 | 178 | 0.0 | 3.2 | 0.00 | 0.00 | 0.00 | 79 | 1016.2 |
| 20260905230002 | 21 | 146 | 0.0 | 3.2 | 0.00 | 0.00 | 0.00 | 78 | 1016.2 |
| 20260905224457 | 22 | 67 | 1.6 | 4.8 | 0.00 | 0.00 | 0.00 | 74 | 1016.0 |
| 20260905222957 | 23 | 295 | 1.6 | 3.2 | 0.00 | 0.00 | 0.00 | 72 | 1016.1 |
| 20260905221459 | 23 | 355 | 1.6 | 4.8 | 0.00 | 0.00 | 0.00 | 71 | 1016.0 |
| 20260905220001 | 23 | 280 | 3.2 | 4.8 | 0.00 | 0.00 | 0.00 | 70 | 1016.0 |
| 20260905214457 | 23 | 17 | 1.6 | 4.8 | 0.00 | 0.00 | 0.00 | 70 | 1015.9 |
| 20260905212957 | 23 | 316 | 3.2 | 6.4 | 0.00 | 0.00 | 0.00 | 69 | 1015.8 |
| 20260905211457 | 23 | 63 | 1.6 | 8.0 | 0.00 | 0.00 | 0.00 | 65 | 1015.6 |